Time;durP1;ratioP1;P1;durP2;ratioP2;P2;SDS_P1;SDS_P2;PMS_P1;PMS_P2;Temp;Humidity;BMP_temperature;BMP_pressure;BME280_temperature;BME280_humidity;BME280_pressure;Samples;Min_cycle;Max_cycle;Signal;HPM_P1;HPM_P2
2021/04/16 00:01:16;;;;;;;6.68;3.15;;;3.40;75.20;;;;;;5011305;28;20049;-52
2021/04/16 00:03:42;;;;;;;5.28;2.97;;;3.40;75.00;;;;;;5011021;28;20046;-53
2021/04/16 00:06:08;;;;;;;6.35;3.15;;;3.40;75.10;;;;;;5007859;28;20073;-51
2021/04/16 00:08:34;;;;;;;5.47;3.05;;;3.40;75.60;;;;;;5007477;28;20038;-50
2021/04/16 00:11:21;;;;;;;9.75;3.13;;;3.30;76.10;;;;;;5008315;28;20095;-50
2021/04/16 00:13:47;;;;;;;6.80;3.05;;;3.30;76.10;;;;;;5006804;28;20450;-53
2021/04/16 00:16:18;;;;;;;7.55;3.00;;;3.30;75.60;;;;;;5008456;28;20080;-54
2021/04/16 00:18:48;;;;;;;5.90;3.00;;;3.30;76.20;;;;;;5009123;28;20482;-52
2021/04/16 00:21:14;;;;;;;6.05;3.58;;;3.30;76.40;;;;;;5012096;28;20037;-51
2021/04/16 00:23:41;;;;;;;7.63;3.50;;;3.20;76.80;;;;;;4998439;28;20464;-52
2021/04/16 00:26:08;;;;;;;7.75;3.10;;;3.30;77.40;;;;;;4999091;28;20041;-51
2021/04/16 00:28:33;;;;;;;7.40;3.35;;;3.20;77.40;;;;;;5007669;28;20038;-51
2021/04/16 00:31:04;;;;;;;7.50;3.30;;;3.20;77.60;;;;;;4992435;28;20049;-51
2021/04/16 00:33:30;;;;;;;7.35;3.08;;;3.10;77.60;;;;;;5003345;28;20467;-52
2021/04/16 00:35:56;;;;;;;7.00;3.35;;;3.10;77.00;;;;;;5007087;28;20038;-52
2021/04/16 00:38:23;;;;;;;5.95;3.30;;;3.10;77.50;;;;;;5010536;28;20073;-52
2021/04/16 00:40:53;;;;;;;5.68;3.20;;;3.10;78.40;;;;;;5004337;28;20418;-52
2021/04/16 00:43:20;;;;;;;8.77;3.50;;;3.10;77.70;;;;;;5011132;28;20037;-53
2021/04/16 00:45:47;;;;;;;6.55;3.08;;;3.20;78.40;;;;;;5006379;28;20066;-50
2021/04/16 00:48:26;;;;;;;5.95;3.13;;;3.20;78.20;;;;;;4994666;28;20097;-53
2021/04/16 00:50:55;;;;;;;6.93;3.35;;;3.10;78.90;;;;;;4999375;28;20088;-51
2021/04/16 00:53:23;;;;;;;8.43;3.30;;;3.10;78.70;;;;;;5010889;28;20074;-52
2021/04/16 00:55:50;;;;;;;8.50;3.10;;;3.10;78.50;;;;;;5010856;28;20046;-54
2021/04/16 00:58:19;;;;;;;9.70;3.50;;;3.10;78.50;;;;;;5010618;28;20033;-53
2021/04/16 01:00:48;;;;;;;7.03;3.33;;;3.10;78.60;;;;;;5001311;28;20480;-54
2021/04/16 01:03:14;;;;;;;7.50;3.08;;;3.10;79.00;;;;;;5007779;28;20402;-54
2021/04/16 01:05:42;;;;;;;7.80;3.42;;;3.00;79.10;;;;;;5000424;28;20042;-52
2021/04/16 01:08:09;;;;;;;8.15;3.42;;;3.00;79.20;;;;;;5003010;28;20038;-51
2021/04/16 01:10:35;;;;;;;8.25;3.20;;;3.00;79.20;;;;;;4998681;28;20552;-51
2021/04/16 01:13:02;;;;;;;5.40;3.17;;;3.00;79.60;;;;;;5005776;28;20047;-54
2021/04/16 01:15:32;;;;;;;7.75;3.45;;;3.00;79.60;;;;;;5009905;28;20116;-50
2021/04/16 01:18:24;;;;;;;5.00;2.92;;;3.00;79.50;;;;;;5001727;28;20042;-54
2021/04/16 01:20:52;;;;;;;11.55;3.85;;;3.00;79.90;;;;;;5001627;28;20100;-54
2021/04/16 01:23:23;;;;;;;8.70;3.42;;;3.00;79.80;;;;;;5002274;28;20259;-52
2021/04/16 01:25:49;;;;;;;7.75;3.53;;;3.00;80.20;;;;;;4996969;28;20467;-54
2021/04/16 01:28:16;;;;;;;5.65;3.13;;;2.90;80.20;;;;;;5006991;28;20044;-53
2021/04/16 01:31:13;;;;;;;9.80;3.50;;;2.90;80.30;;;;;;5008884;28;20138;-52
2021/04/16 01:33:40;;;;;;;7.28;3.90;;;2.90;80.60;;;;;;5001882;28;20065;-52
2021/04/16 01:36:11;;;;;;;7.13;3.60;;;2.90;80.50;;;;;;5001876;28;20137;-51
2021/04/16 01:38:39;;;;;;;6.32;3.60;;;2.90;80.50;;;;;;4997260;28;20030;-53
2021/04/16 01:41:06;;;;;;;8.38;3.75;;;2.80;81.00;;;;;;5002563;28;20042;-53
2021/04/16 01:43:36;;;;;;;7.57;3.72;;;2.80;80.90;;;;;;5007610;28;20039;-50
2021/04/16 01:46:08;;;;;;;8.45;3.70;;;2.80;81.00;;;;;;5004326;28;20136;-50
2021/04/16 01:48:58;;;;;;;7.25;3.67;;;2.80;80.90;;;;;;4996886;28;20054;-54
2021/04/16 01:51:33;;;;;;;8.60;3.90;;;2.80;81.10;;;;;;5009181;28;20073;-54
2021/04/16 01:54:10;;;;;;;9.40;4.10;;;2.80;81.10;;;;;;5000972;28;20509;-54
2021/04/16 01:56:38;;;;;;;9.35;3.88;;;2.80;81.20;;;;;;5000119;28;20042;-53
2021/04/16 01:59:07;;;;;;;7.30;4.10;;;2.90;82.10;;;;;;5005200;28;20129;-52
2021/04/16 02:01:33;;;;;;;7.68;4.32;;;2.80;81.50;;;;;;5010353;28;20045;-51
2021/04/16 02:03:59;;;;;;;8.68;3.80;;;2.80;82.00;;;;;;5004789;28;20045;-53
2021/04/16 02:06:25;;;;;;;8.27;3.70;;;2.70;82.00;;;;;;5006638;28;20041;-52
2021/04/16 02:08:53;;;;;;;8.10;3.70;;;2.70;82.00;;;;;;5012309;28;20042;-50
2021/04/16 02:11:19;;;;;;;9.32;3.90;;;2.70;82.30;;;;;;5005530;28;20516;-52
2021/04/16 02:13:45;;;;;;;10.02;4.57;;;2.70;82.20;;;;;;5012095;28;20470;-50
2021/04/16 02:16:10;;;;;;;10.85;4.35;;;2.80;83.10;;;;;;5006070;28;20034;-53
2021/04/16 02:18:36;;;;;;;9.02;4.25;;;2.80;83.00;;;;;;5010697;28;20494;-51
2021/04/16 02:21:01;;;;;;;14.32;4.57;;;2.80;83.10;;;;;;5013627;28;20100;-52
2021/04/16 02:23:27;;;;;;;9.13;4.15;;;2.80;83.20;;;;;;5013656;28;20130;-54
2021/04/16 02:25:53;;;;;;;8.50;4.13;;;2.80;83.70;;;;;;5011945;28;20045;-53
2021/04/16 02:28:18;;;;;;;10.38;4.50;;;2.50;83.80;;;;;;5013047;28;20061;-53
2021/04/16 02:30:45;;;;;;;10.00;4.80;;;2.90;84.20;;;;;;5012732;28;20132;-53
2021/04/16 02:33:11;;;;;;;9.27;4.53;;;2.80;84.20;;;;;;5013915;28;20042;-53
2021/04/16 02:35:36;;;;;;;7.30;4.40;;;2.80;83.70;;;;;;5009330;28;20593;-52
2021/04/16 02:38:02;;;;;;;11.13;3.95;;;2.80;83.90;;;;;;5013711;28;20049;-52
2021/04/16 02:40:28;;;;;;;12.23;4.97;;;2.80;84.20;;;;;;5011649;28;20541;-54
2021/04/16 02:42:54;;;;;;;11.05;4.60;;;2.80;84.50;;;;;;5006324;28;20042;-51
2021/04/16 02:45:25;;;;;;;9.80;4.15;;;2.70;84.30;;;;;;5000848;28;20055;-51
2021/04/16 02:47:51;;;;;;;12.15;4.30;;;2.70;84.30;;;;;;4998459;28;20116;-51
2021/04/16 02:50:25;;;;;;;11.32;4.30;;;2.70;84.60;;;;;;5004007;28;20062;-53
2021/04/16 02:52:51;;;;;;;10.95;4.43;;;2.60;84.50;;;;;;5010795;28;20045;-53
2021/04/16 02:55:17;;;;;;;12.32;4.40;;;2.60;84.60;;;;;;5008310;28;20483;-53
2021/04/16 02:57:43;;;;;;;10.13;4.13;;;2.90;84.50;;;;;;5006616;28;20049;-52
2021/04/16 03:00:16;;;;;;;8.25;4.60;;;2.50;84.70;;;;;;5000035;28;20140;-51
2021/04/16 03:02:42;;;;;;;10.32;4.70;;;2.50;84.60;;;;;;5004282;28;20568;-51
2021/04/16 03:05:09;;;;;;;8.95;4.55;;;2.60;85.10;;;;;;5002215;28;20042;-50
2021/04/16 03:07:34;;;;;;;9.48;4.68;;;2.60;85.20;;;;;;5005594;28;20049;-51
2021/04/16 03:10:00;;;;;;;11.50;4.40;;;2.60;84.80;;;;;;4999588;28;20038;-54
2021/04/16 03:12:25;;;;;;;12.68;5.00;;;2.60;85.10;;;;;;4996903;28;20046;-51
2021/04/16 03:14:51;;;;;;;11.65;4.35;;;2.50;85.40;;;;;;5010274;28;20076;-51
2021/04/16 03:17:17;;;;;;;9.05;4.07;;;2.50;85.40;;;;;;5003711;28;20050;-53
2021/04/16 03:19:43;;;;;;;11.63;4.25;;;2.50;85.90;;;;;;4996714;28;20416;-53
2021/04/16 03:22:09;;;;;;;11.40;4.45;;;2.50;85.90;;;;;;5003065;28;20138;-51
2021/04/16 03:24:35;;;;;;;17.65;5.00;;;2.50;85.80;;;;;;5003093;28;20034;-51
2021/04/16 03:27:00;;;;;;;11.10;4.35;;;2.60;86.00;;;;;;5009022;28;20041;-51
2021/04/16 03:29:26;;;;;;;11.75;4.50;;;2.50;85.50;;;;;;4997143;28;20129;-50
2021/04/16 03:31:52;;;;;;;9.82;4.80;;;2.50;85.90;;;;;;5010992;28;20049;-50
2021/04/16 03:34:17;;;;;;;8.48;4.82;;;2.60;85.80;;;;;;5003044;28;20057;-50
2021/04/16 03:36:43;;;;;;;9.95;4.22;;;2.60;85.80;;;;;;5012758;28;20442;-50
2021/04/16 03:39:08;;;;;;;8.18;4.43;;;2.50;85.90;;;;;;5012713;28;20041;-50
2021/04/16 03:41:34;;;;;;;8.93;4.20;;;2.50;86.30;;;;;;5012436;28;20068;-50
2021/04/16 03:44:00;;;;;;;10.55;5.03;;;2.50;86.30;;;;;;5005993;28;20046;-50
2021/04/16 03:46:26;;;;;;;9.88;4.28;;;2.50;85.80;;;;;;5001187;28;20109;-50
2021/04/16 03:48:51;;;;;;;10.55;3.75;;;2.50;86.20;;;;;;5012896;28;20458;-50
2021/04/16 03:51:17;;;;;;;10.70;4.65;;;2.50;86.10;;;;;;5012921;28;20457;-49
2021/04/16 03:53:43;;;;;;;14.07;4.68;;;2.50;86.30;;;;;;5006721;28;20521;-50
2021/04/16 03:56:10;;;;;;;9.55;4.25;;;2.60;86.90;;;;;;5000347;28;20122;-50
2021/04/16 03:58:36;;;;;;;13.10;4.10;;;2.60;87.30;;;;;;5010668;28;20038;-51
2021/04/16 04:01:07;;;;;;;12.00;5.03;;;2.60;86.90;;;;;;5012532;28;20069;-49
2021/04/16 04:03:33;;;;;;;11.40;4.40;;;2.60;87.30;;;;;;5011359;28;20042;-50
2021/04/16 04:05:59;;;;;;;8.80;4.20;;;2.60;87.40;;;;;;5012003;28;20046;-50
2021/04/16 04:08:25;;;;;;;11.57;4.93;;;2.60;87.20;;;;;;5011965;28;20487;-51
2021/04/16 04:10:51;;;;;;;11.13;4.43;;;2.70;87.40;;;;;;5011453;28;20538;-51
2021/04/16 04:13:16;;;;;;;10.00;3.63;;;2.70;87.70;;;;;;5012448;28;20038;-51
2021/04/16 04:15:42;;;;;;;13.35;4.70;;;2.70;87.40;;;;;;5009779;28;20069;-52
2021/04/16 04:18:09;;;;;;;10.65;4.43;;;2.70;87.70;;;;;;5011958;28;20041;-49
2021/04/16 04:20:36;;;;;;;12.68;4.65;;;2.80;88.30;;;;;;5002910;28;20038;-52
2021/04/16 04:23:04;;;;;;;12.90;4.50;;;2.80;87.60;;;;;;5003476;28;20569;-50
2021/04/16 04:25:31;;;;;;;9.60;4.40;;;2.80;88.00;;;;;;5006172;28;20077;-50
2021/04/16 04:27:57;;;;;;;17.05;4.60;;;2.70;87.60;;;;;;4995951;28;20038;-50
2021/04/16 04:30:27;;;;;;;11.02;4.47;;;2.70;88.50;;;;;;5004595;28;20054;-50
2021/04/16 04:32:53;;;;;;;14.48;4.75;;;2.70;88.10;;;;;;5011577;28;20116;-51
2021/04/16 04:35:19;;;;;;;13.65;4.63;;;2.60;88.00;;;;;;5012303;28;20057;-53
2021/04/16 04:37:45;;;;;;;8.63;4.13;;;2.60;88.20;;;;;;5010608;28;20038;-49
2021/04/16 04:40:11;;;;;;;9.73;4.68;;;2.50;88.20;;;;;;5002994;28;20133;-49
2021/04/16 04:42:37;;;;;;;13.80;4.70;;;2.50;88.30;;;;;;5008177;28;20041;-49
2021/04/16 04:45:05;;;;;;;11.93;4.70;;;2.50;88.30;;;;;;4999222;28;20291;-50
2021/04/16 04:47:30;;;;;;;14.00;5.05;;;2.50;88.30;;;;;;5011041;28;20052;-52
2021/04/16 04:49:56;;;;;;;15.05;5.20;;;2.60;88.70;;;;;;4993319;28;20038;-51
2021/04/16 04:52:30;;;;;;;13.63;4.45;;;2.50;88.50;;;;;;5003209;28;20475;-51
2021/04/16 04:54:58;;;;;;;14.02;4.82;;;2.50;88.60;;;;;;5001857;28;20505;-51
2021/04/16 04:57:25;;;;;;;11.88;4.43;;;2.50;88.80;;;;;;5002152;28;20050;-50
2021/04/16 04:59:51;;;;;;;9.52;4.32;;;2.50;88.50;;;;;;4995925;28;20053;-49
2021/04/16 05:02:19;;;;;;;9.13;4.55;;;2.50;88.80;;;;;;4999058;28;20046;-51
2021/04/16 05:04:45;;;;;;;9.32;4.68;;;2.60;88.70;;;;;;5005819;28;20451;-51
2021/04/16 05:07:11;;;;;;;9.50;4.40;;;2.60;88.60;;;;;;5006463;28;20136;-50
2021/04/16 05:09:37;;;;;;;14.05;5.13;;;2.60;88.70;;;;;;5009214;28;20133;-50
2021/04/16 05:12:03;;;;;;;11.60;5.10;;;2.70;88.80;;;;;;5009882;28;20133;-50
2021/04/16 05:14:29;;;;;;;9.82;4.50;;;2.80;88.60;;;;;;5009533;28;20445;-50
2021/04/16 05:16:54;;;;;;;10.23;4.43;;;2.70;88.80;;;;;;5009224;28;20120;-51
2021/04/16 05:19:20;;;;;;;10.20;4.55;;;2.70;88.80;;;;;;5010710;28;20409;-51
2021/04/16 05:21:46;;;;;;;14.25;5.45;;;2.70;88.80;;;;;;5011696;28;20049;-51
2021/04/16 05:24:13;;;;;;;13.13;5.10;;;2.80;89.00;;;;;;5010811;28;20053;-51
2021/04/16 05:26:40;;;;;;;12.70;4.90;;;3.00;89.10;;;;;;5001146;28;20038;-51
2021/04/16 05:29:06;;;;;;;11.30;4.80;;;3.00;88.80;;;;;;4996306;28;20034;-53
2021/04/16 05:31:32;;;;;;;11.35;4.57;;;3.10;88.60;;;;;;4996424;28;20108;-50
2021/04/16 05:33:58;;;;;;;13.68;4.72;;;3.30;88.30;;;;;;5008664;28;20537;-49
2021/04/16 05:36:24;;;;;;;11.70;4.70;;;3.50;87.70;;;;;;5010154;28;20045;-51
2021/04/16 05:38:50;;;;;;;7.78;4.22;;;3.60;87.30;;;;;;5009292;28;20049;-49
2021/04/16 05:41:17;;;;;;;10.32;4.70;;;3.60;87.20;;;;;;5010207;28;20045;-49
2021/04/16 05:43:43;;;;;;;11.98;4.75;;;3.80;87.00;;;;;;5010088;28;20562;-49
2021/04/16 05:46:10;;;;;;;13.88;4.65;;;4.10;86.40;;;;;;5006528;28;20096;-49
2021/04/16 05:48:35;;;;;;;13.23;4.50;;;4.40;84.90;;;;;;5010420;28;20148;-49
2021/04/16 05:51:02;;;;;;;14.50;4.35;;;4.90;83.40;;;;;;5009347;28;20565;-50
2021/04/16 05:53:28;;;;;;;7.43;3.90;;;5.40;82.10;;;;;;5002568;28;20076;-50
2021/04/16 05:55:55;;;;;;;13.32;4.47;;;5.80;79.20;;;;;;4996531;28;20074;-50
2021/04/16 05:58:21;;;;;;;8.57;4.20;;;5.90;78.70;;;;;;5009469;28;20073;-50
2021/04/16 06:00:47;;;;;;;11.82;4.28;;;5.90;78.90;;;;;;5000953;28;20077;-50
2021/04/16 06:03:15;;;;;;;10.65;4.03;;;6.00;78.50;;;;;;5007092;28;20074;-49
2021/04/16 06:05:40;;;;;;;11.45;4.70;;;6.00;78.80;;;;;;5010995;28;20155;-50
2021/04/16 06:08:06;;;;;;;14.93;4.40;;;6.00;79.00;;;;;;5010499;28;20042;-49
2021/04/16 06:10:32;;;;;;;12.63;4.65;;;6.20;78.60;;;;;;4994645;28;20487;-49
2021/04/16 06:12:57;;;;;;;15.07;5.00;;;6.40;77.60;;;;;;4995284;28;20077;-50
2021/04/16 06:15:27;;;;;;;8.63;4.10;;;6.50;77.60;;;;;;4998461;28;20034;-49
2021/04/16 06:17:53;;;;;;;11.85;4.50;;;6.40;78.10;;;;;;4993756;28;20062;-49
2021/04/16 06:20:21;;;;;;;11.55;4.38;;;6.40;78.20;;;;;;4997603;28;20049;-50
2021/04/16 06:22:49;;;;;;;12.18;5.03;;;6.50;78.20;;;;;;4994475;28;20499;-49
2021/04/16 06:25:19;;;;;;;11.57;4.32;;;6.60;78.00;;;;;;4996209;28;20459;-50
2021/04/16 06:27:45;;;;;;;13.18;4.53;;;6.90;77.50;;;;;;5004224;28;20077;-49
2021/04/16 06:30:12;;;;;;;13.07;5.10;;;6.90;77.40;;;;;;4998549;28;20042;-51
2021/04/16 06:32:38;;;;;;;11.73;4.53;;;6.90;77.70;;;;;;5000922;28;20133;-51
2021/04/16 06:35:06;;;;;;;8.05;4.10;;;6.90;78.20;;;;;;5003879;28;20124;-53
2021/04/16 06:37:32;;;;;;;12.82;4.72;;;6.80;78.80;;;;;;4997951;28;20049;-50
2021/04/16 06:39:58;;;;;;;13.35;4.63;;;6.80;79.70;;;;;;5014470;28;20414;-53
2021/04/16 06:42:32;;;;;;;9.63;4.38;;;6.80;80.20;;;;;;5001605;28;20536;-53
2021/04/16 06:45:01;;;;;;;12.35;4.22;;;6.80;80.00;;;;;;5000330;28;20141;-50
2021/04/16 06:47:36;;;;;;;10.13;4.40;;;6.90;80.20;;;;;;5005896;28;20058;-54
2021/04/16 06:50:04;;;;;;;8.80;4.70;;;6.90;80.40;;;;;;4999160;28;20038;-52
2021/04/16 06:52:39;;;;;;;11.30;4.95;;;6.90;80.60;;;;;;5007981;28;20269;-52
2021/04/16 06:55:12;;;;;;;13.05;4.57;;;7.00;80.40;;;;;;5006359;28;20038;-50
2021/04/16 06:57:40;;;;;;;;;;;7.10;80.30;;;;;;5005317;28;20041;-51
2021/04/16 07:00:36;;;;;;;10.00;4.53;;;7.20;80.30;;;;;;5013000;28;20023;-50
2021/04/16 07:03:32;;;;;;;12.05;3.90;;;7.20;80.10;;;;;;5005164;28;20038;-51
2021/04/16 07:06:08;;;;;;;11.63;4.28;;;7.40;80.10;;;;;;5001026;28;20054;-53
2021/04/16 07:09:01;;;;;;;12.07;4.10;;;7.50;80.00;;;;;;5002645;28;20042;-51
2021/04/16 07:11:31;;;;;;;;;;;7.50;78.90;;;;;;5008243;28;20132;-52
2021/04/16 07:13:59;;;;;;;12.55;4.47;;;7.50;79.20;;;;;;5010003;28;20015;-50
2021/04/16 07:16:26;;;;;;;14.60;4.13;;;7.50;78.90;;;;;;5005918;28;20048;-51
2021/04/16 07:18:56;;;;;;;8.55;3.47;;;7.50;78.90;;;;;;5005065;28;20069;-53
2021/04/16 07:21:23;;;;;;;10.85;4.10;;;7.60;78.20;;;;;;4999204;28;20490;-51
2021/04/16 07:23:52;;;;;;;10.32;3.65;;;7.60;77.90;;;;;;5000018;28;20034;-49
2021/04/16 07:26:48;;;;;;;9.07;3.17;;;7.70;77.90;;;;;;5005394;28;20497;-51
2021/04/16 07:29:56;;;;;;;10.80;3.47;;;7.90;76.90;;;;;;5004135;28;20034;-51
2021/04/16 07:32:29;;;;;;;12.98;3.50;;;8.00;74.80;;;;;;5003597;28;20514;-53
2021/04/16 07:34:58;;;;;;;10.20;3.10;;;8.20;74.80;;;;;;5007308;28;20069;-53
2021/04/16 07:37:42;;;;;;;9.65;2.88;;;8.30;74.20;;;;;;5002288;28;20482;-53
2021/04/16 07:40:14;;;;;;;11.05;2.97;;;8.40;71.40;;;;;;4999032;28;20502;-51
2021/04/16 07:42:46;;;;;;;9.48;2.80;;;8.40;70.20;;;;;;5004088;28;20045;-51
2021/04/16 07:45:34;;;;;;;6.03;2.20;;;8.40;70.10;;;;;;5005341;28;20081;-51
2021/04/16 07:48:18;;;;;;;10.57;2.83;;;8.60;66.00;;;;;;5003429;28;20033;-50
2021/04/16 07:50:47;;;;;;;8.48;3.28;;;8.60;66.20;;;;;;5004403;28;20069;-51
2021/04/16 07:53:37;;;;;;;11.75;3.20;;;8.70;65.00;;;;;;5008789;28;20125;-50
2021/04/16 07:56:12;;;;;;;6.10;2.55;;;8.80;65.70;;;;;;4992685;28;20050;-53
2021/04/16 07:58:40;;;;;;;9.57;2.70;;;8.90;64.70;;;;;;4999875;28;20255;-50
2021/04/16 08:01:24;;;;;;;8.25;2.83;;;9.00;62.80;;;;;;5000536;28;20046;-52
2021/04/16 08:03:55;;;;;;;7.82;2.67;;;9.00;61.80;;;;;;4999794;28;20088;-51
2021/04/16 08:06:38;;;;;;;9.90;2.97;;;9.20;62.00;;;;;;5010492;28;20038;-50
2021/04/16 08:09:28;;;;;;;5.78;2.10;;;9.30;60.30;;;;;;5001975;28;20033;-53
2021/04/16 08:12:00;;;;;;;6.85;2.50;;;9.40;58.70;;;;;;5005602;28;20056;-53
2021/04/16 08:14:31;;;;;;;7.28;2.30;;;9.50;58.90;;;;;;5008276;28;20045;-51
2021/04/16 08:17:02;;;;;;;7.00;2.40;;;9.50;57.70;;;;;;5008983;28;20049;-52
2021/04/16 08:19:37;;;;;;;3.38;1.65;;;9.60;59.20;;;;;;5012029;28;20541;-53
2021/04/16 08:22:14;;;;;;;4.28;1.92;;;9.70;54.70;;;;;;5011930;28;20069;-52
2021/04/16 08:25:05;;;;;;;3.70;2.03;;;9.80;55.00;;;;;;5012540;28;20128;-52
2021/04/16 08:27:41;;;;;;;2.80;1.70;;;10.00;50.70;;;;;;5009029;28;20038;-53
2021/04/16 08:30:15;;;;;;;4.45;2.28;;;10.00;50.40;;;;;;5012287;28;20157;-51
2021/04/16 08:32:47;;;;;;;4.63;1.95;;;9.90;50.30;;;;;;5009705;28;20041;-50
2021/04/16 08:35:21;;;;;;;4.43;1.85;;;10.00;51.60;;;;;;5012270;28;20041;-50
2021/04/16 08:37:51;;;;;;;3.72;1.65;;;10.10;50.50;;;;;;5007537;28;20046;-52
2021/04/16 08:40:49;;;;;;;3.28;1.48;;;10.10;49.70;;;;;;5005989;28;20124;-53
2021/04/16 08:43:30;;;;;;;4.45;1.88;;;10.20;49.60;;;;;;5003993;28;20065;-52
2021/04/16 08:45:57;;;;;;;5.30;1.88;;;10.30;47.90;;;;;;5004906;28;20062;-53
2021/04/16 08:48:28;;;;;;;5.20;1.63;;;10.40;49.10;;;;;;5005223;28;20470;-54
2021/04/16 08:50:59;;;;;;;4.78;1.73;;;10.40;49.50;;;;;;5005981;28;20097;-51
2021/04/16 08:53:24;;;;;;;3.60;1.55;;;10.40;48.00;;;;;;5007874;28;20046;-50
2021/04/16 08:55:52;;;;;;;4.15;1.60;;;10.50;48.80;;;;;;5005916;28;20104;-49
2021/04/16 08:58:33;;;;;;;2.55;1.50;;;10.70;49.20;;;;;;5003164;28;20387;-54
2021/04/16 09:01:08;;;;;;;3.58;1.52;;;10.80;46.20;;;;;;4995424;28;20133;-53
2021/04/16 09:03:48;;;;;;;2.97;1.55;;;10.90;46.10;;;;;;4997378;28;20060;-52
2021/04/16 09:06:31;;;;;;;2.90;1.15;;;11.00;44.00;;;;;;4998807;28;20121;-51
2021/04/16 09:08:57;;;;;;;;;;;11.10;42.50;;;;;;5006651;28;20033;-55
2021/04/16 09:11:41;;;;;;;3.15;1.40;;;11.10;43.20;;;;;;5001169;28;20541;-51
2021/04/16 09:14:29;;;;;;;2.83;1.30;;;11.10;43.40;;;;;;4992332;28;20042;-51
2021/04/16 09:17:06;;;;;;;7.53;1.92;;;11.10;43.10;;;;;;5004214;28;20040;-51
2021/04/16 09:19:32;;;;;;;2.05;1.58;;;11.00;42.70;;;;;;5001871;28;20092;-50
2021/04/16 09:22:06;;;;;;;2.88;1.15;;;11.10;43.70;;;;;;5010442;28;20050;-52
2021/04/16 09:24:50;;;;;;;1.90;1.15;;;11.10;41.40;;;;;;4998788;28;20049;-52
2021/04/16 09:27:36;;;;;;;4.72;1.48;;;11.20;43.80;;;;;;5009496;28;20038;-52
2021/04/16 09:30:08;;;;;;;3.28;1.48;;;11.20;43.80;;;;;;5005320;28;20038;-50
2021/04/16 09:32:33;;;;;;;4.15;1.20;;;11.40;43.80;;;;;;5010634;28;20550;-51
2021/04/16 09:35:17;;;;;;;4.47;1.67;;;11.50;42.10;;;;;;4994916;28;20106;-53
2021/04/16 09:37:46;;;;;;;7.07;1.80;;;11.40;42.30;;;;;;5006164;28;20040;-51
2021/04/16 09:40:26;;;;;;;6.53;1.60;;;11.40;43.70;;;;;;5010945;28;20134;-54
2021/04/16 09:43:21;;;;;;;4.63;1.67;;;11.40;44.90;;;;;;5005096;28;20048;-53
2021/04/16 09:45:50;;;;;;;3.60;1.38;;;11.50;44.20;;;;;;5001061;28;20042;-53
2021/04/16 09:48:18;;;;;;;4.30;2.35;;;11.50;43.50;;;;;;5010474;28;20045;-53
2021/04/16 09:50:49;;;;;;;5.38;1.95;;;11.60;44.10;;;;;;5010493;28;20489;-54
2021/04/16 09:53:30;;;;;;;2.78;1.48;;;11.60;43.70;;;;;;5003818;28;20038;-53
2021/04/16 09:56:00;;;;;;;4.63;1.40;;;11.60;42.90;;;;;;5009393;28;20044;-51
2021/04/16 09:58:31;;;;;;;2.85;1.25;;;11.70;43.80;;;;;;5010341;28;20076;-54
2021/04/16 10:00:57;;;;;;;4.25;1.55;;;11.70;41.50;;;;;;5010921;28;20049;-54
2021/04/16 10:03:32;;;;;;;4.88;1.60;;;11.70;42.30;;;;;;5010625;28;20033;-54
2021/04/16 10:06:17;;;;;;;2.83;1.38;;;11.80;42.80;;;;;;4997971;28;20118;-52
2021/04/16 10:08:45;;;;;;;4.93;1.60;;;11.90;41.10;;;;;;4995418;28;20030;-54
2021/04/16 10:11:13;;;;;;;5.68;1.65;;;11.90;41.20;;;;;;4994362;28;20038;-54
2021/04/16 10:13:40;;;;;;;3.97;1.50;;;11.90;41.60;;;;;;5005391;28;20409;-53
2021/04/16 10:16:25;;;;;;;4.38;2.55;;;12.00;41.10;;;;;;5000910;28;20213;-51
2021/04/16 10:18:54;;;;;;;18.80;10.68;;;12.00;40.90;;;;;;5003554;28;20468;-51
2021/04/16 10:21:26;;;;;;;4.70;1.55;;;12.00;41.80;;;;;;5009098;28;20110;-50
2021/04/16 10:24:41;;;;;;;3.83;1.40;;;12.10;41.50;;;;;;5002184;28;20441;-53
2021/04/16 10:28:09;;;;;;;4.93;1.67;;;12.00;41.20;;;;;;5012290;28;20049;-51
2021/04/16 10:33:42;;;;;;;5.28;1.23;;;12.10;41.50;;;;;;5007464;28;20038;-52
2021/04/16 12:39:08;;;;;;;4.30;2.08;;;12.80;41.60;;;;;;4999796;28;20042;-54
2021/04/16 12:41:43;;;;;;;4.63;1.80;;;12.80;42.60;;;;;;5004600;28;20233;-50
2021/04/16 12:44:21;;;;;;;5.47;1.67;;;12.90;42.90;;;;;;5003022;28;20402;-50
2021/04/16 12:46:46;;;;;;;3.85;1.90;;;13.10;40.70;;;;;;4997458;28;20031;-49
2021/04/16 12:49:12;;;;;;;5.55;1.92;;;13.10;42.20;;;;;;4998436;28;20060;-52
2021/04/16 12:51:38;;;;;;;4.28;1.70;;;13.10;41.30;;;;;;4982933;28;20104;-55
2021/04/16 12:54:04;;;;;;;5.20;1.85;;;13.20;42.10;;;;;;5003978;28;20478;-54
2021/04/16 12:56:41;;;;;;;3.85;1.60;;;13.50;41.20;;;;;;5007653;28;20054;-53
2021/04/16 12:59:16;;;;;;;3.67;1.67;;;13.50;41.30;;;;;;5007018;28;20041;-50
2021/04/16 13:01:46;;;;;;;3.15;1.70;;;13.20;41.80;;;;;;5010223;28;20042;-52
2021/04/16 13:04:14;;;;;;;4.85;1.52;;;13.00;41.70;;;;;;5003052;28;20045;-54
2021/04/16 13:06:43;;;;;;;5.95;1.70;;;12.90;43.00;;;;;;5002231;28;20113;-54
2021/04/16 13:09:11;;;;;;;4.15;1.48;;;12.90;42.30;;;;;;5001059;28;20038;-54
2021/04/16 13:11:37;;;;;;;3.72;1.90;;;13.00;41.80;;;;;;5003950;28;20053;-58
2021/04/16 13:14:04;;;;;;;4.63;1.55;;;12.90;40.70;;;;;;5011515;28;20401;-57
2021/04/16 13:16:30;;;;;;;4.40;1.70;;;12.90;40.70;;;;;;5010207;28;20065;-59
2021/04/16 13:18:59;;;;;;;2.85;1.27;;;13.00;42.40;;;;;;5004702;28;20043;-59
2021/04/16 13:21:36;;;;;;;6.45;2.00;;;13.20;44.30;;;;;;5004660;28;20038;-59
2021/04/16 13:24:02;;;;;;;6.70;1.92;;;13.30;40.70;;;;;;5006054;28;20092;-58
2021/04/16 13:26:28;;;;;;;7.18;2.08;;;13.20;41.60;;;;;;4999843;28;20113;-59
2021/04/16 13:28:55;;;;;;;5.03;1.98;;;13.20;41.50;;;;;;5010940;28;20033;-59
2021/04/16 13:31:22;;;;;;;6.60;3.95;;;13.10;42.60;;;;;;5008864;28;20041;-57
2021/04/16 13:33:49;;;;;;;7.70;3.50;;;13.10;43.20;;;;;;5008357;28;20088;-60
2021/04/16 13:36:18;;;;;;;4.55;1.98;;;13.20;43.00;;;;;;5011227;28;20208;-60
2021/04/16 13:38:44;;;;;;;4.60;2.00;;;13.40;42.50;;;;;;5005562;28;20145;-61
2021/04/16 13:41:10;;;;;;;7.00;1.83;;;13.40;41.70;;;;;;5004292;28;20045;-58
2021/04/16 13:43:36;;;;;;;11.32;2.03;;;13.30;41.00;;;;;;5001190;28;20490;-59
2021/04/16 13:46:04;;;;;;;6.07;1.90;;;13.20;41.40;;;;;;5011081;28;20132;-55
2021/04/16 13:48:30;;;;;;;3.63;1.88;;;13.10;41.00;;;;;;5003819;28;20486;-54
2021/04/16 13:50:56;;;;;;;3.35;1.73;;;12.90;41.70;;;;;;5007474;28;20097;-56
2021/04/16 13:53:21;;;;;;;3.42;1.60;;;12.80;42.00;;;;;;5004617;28;20030;-56
2021/04/16 13:55:47;;;;;;;5.95;2.40;;;13.00;42.60;;;;;;5009426;28;20058;-54
2021/04/16 13:58:13;;;;;;;4.15;1.95;;;13.10;42.00;;;;;;5006191;28;20053;-54
2021/04/16 14:00:39;;;;;;;5.65;2.20;;;13.20;41.60;;;;;;5000232;28;20038;-56
2021/04/16 14:03:29;;;;;;;5.32;2.17;;;13.30;42.30;;;;;;5000013;28;20074;-56
2021/04/16 14:05:57;;;;;;;4.10;2.17;;;13.30;42.10;;;;;;4996830;28;20089;-54
2021/04/16 14:08:30;;;;;;;5.75;1.98;;;13.20;42.00;;;;;;5000917;28;20049;-55
2021/04/16 14:10:55;;;;;;;5.00;2.08;;;13.10;43.60;;;;;;4998474;28;20045;-55
2021/04/16 14:13:21;;;;;;;5.32;2.10;;;13.00;43.40;;;;;;4998608;28;20046;-56
2021/04/16 14:15:47;;;;;;;5.28;2.08;;;12.90;43.20;;;;;;5003829;28;20053;-55
2021/04/16 14:18:36;;;;;;;8.75;2.85;;;12.80;43.30;;;;;;4998025;28;20061;-56
2021/04/16 14:21:06;;;;;;;6.40;2.28;;;12.60;44.80;;;;;;4999015;28;20088;-55
2021/04/16 14:23:33;;;;;;;6.05;2.50;;;12.50;45.20;;;;;;4995848;28;20038;-54
2021/04/16 14:25:59;;;;;;;6.35;2.38;;;12.50;45.40;;;;;;4994861;28;20048;-54
2021/04/16 14:28:25;;;;;;;3.58;1.98;;;12.60;44.70;;;;;;4995836;28;20041;-55
2021/04/16 14:30:54;;;;;;;6.55;2.40;;;12.80;44.70;;;;;;4997705;28;20038;-55
2021/04/16 14:33:28;;;;;;;6.18;2.38;;;12.90;44.80;;;;;;4998094;28;20052;-53
2021/04/16 14:35:54;;;;;;;8.30;2.63;;;13.00;43.00;;;;;;5005426;28;20049;-53
2021/04/16 14:38:21;;;;;;;5.95;2.53;;;12.80;43.90;;;;;;5000363;28;20445;-55
2021/04/16 14:40:47;;;;;;;7.82;2.30;;;12.60;43.20;;;;;;5006596;28;20118;-56
2021/04/16 14:43:13;;;;;;;8.43;2.70;;;12.60;43.50;;;;;;5010948;28;20129;-57
2021/04/16 14:45:42;;;;;;;3.92;2.17;;;12.60;44.80;;;;;;5003344;28;20097;-55
2021/04/16 14:48:08;;;;;;;3.90;2.10;;;12.80;44.10;;;;;;4998029;28;20038;-55
2021/04/16 14:50:34;;;;;;;6.95;2.42;;;12.80;44.00;;;;;;4996403;28;20042;-56
2021/04/16 14:53:05;;;;;;;7.00;2.00;;;12.80;43.50;;;;;;4998157;28;20054;-55
2021/04/16 14:55:34;;;;;;;9.05;2.70;;;12.80;43.70;;;;;;4996664;28;20131;-56
2021/04/16 14:58:01;;;;;;;4.45;2.10;;;12.90;43.20;;;;;;4995102;28;20049;-54
2021/04/16 15:00:31;;;;;;;5.47;2.28;;;12.90;43.50;;;;;;5000689;28;20100;-57
2021/04/16 15:02:57;;;;;;;6.15;2.30;;;13.00;43.00;;;;;;5006272;28;20111;-55
2021/04/16 15:05:24;;;;;;;5.40;2.35;;;13.00;42.60;;;;;;5013455;28;20099;-55
2021/04/16 15:08:06;;;;;;;3.85;1.95;;;12.90;43.40;;;;;;5012676;28;20069;-54
2021/04/16 15:10:34;;;;;;;;;;;12.90;43.10;;;;;;5011889;28;20418;-56
2021/04/16 15:13:00;;;;;;;4.68;2.20;;;12.90;43.60;;;;;;5004054;28;19917;-56